createdAt,value
2022-08-25T00:01:27.517Z,17.87
2022-08-25T00:03:57.524Z,17.86
2022-08-25T00:06:24.951Z,17.84
2022-08-25T00:08:51.816Z,17.81
2022-08-25T00:11:23.923Z,17.76
2022-08-25T00:13:54.240Z,17.73
2022-08-25T00:16:22.826Z,17.70
2022-08-25T00:18:54.307Z,17.66
2022-08-25T00:21:21.689Z,17.63
2022-08-25T00:23:48.394Z,17.52
2022-08-25T00:26:16.310Z,17.48
2022-08-25T00:28:43.789Z,17.44
2022-08-25T00:31:16.445Z,17.46
2022-08-25T00:33:44.893Z,17.41
2022-08-25T00:36:12.520Z,17.36
2022-08-25T00:38:44.716Z,17.34
2022-08-25T00:41:15.014Z,17.30
2022-08-25T00:43:41.557Z,17.27
2022-08-25T00:46:10.254Z,17.25
2022-08-25T00:48:39.120Z,17.22
2022-08-25T00:51:08.424Z,17.17
2022-08-25T00:53:35.256Z,17.15
2022-08-25T00:56:02.472Z,17.12
2022-08-25T00:58:31.080Z,17.09
2022-08-25T01:00:58.805Z,17.05
2022-08-25T01:03:33.051Z,16.99
2022-08-25T01:06:04.208Z,16.99
2022-08-25T01:08:32.544Z,16.96
2022-08-25T01:11:04.908Z,16.90
2022-08-25T01:13:37.381Z,16.86
2022-08-25T01:16:04.150Z,16.72
2022-08-25T01:18:53.002Z,16.72
2022-08-25T01:21:21.900Z,16.70
2022-08-25T01:23:50.539Z,16.70
2022-08-25T01:26:30.073Z,16.57
2022-08-25T01:29:18.034Z,16.54
2022-08-25T01:31:45.252Z,16.53
2022-08-25T01:34:12.636Z,16.54
2022-08-25T01:36:41.166Z,16.52
2022-08-25T01:39:07.902Z,16.52
2022-08-25T01:41:34.445Z,16.53
2022-08-25T01:44:02.793Z,16.53
2022-08-25T01:46:29.644Z,16.52
2022-08-25T01:48:56.311Z,16.46
2022-08-25T01:51:25.522Z,16.42
2022-08-25T01:53:52.137Z,16.45
2022-08-25T01:56:19.259Z,16.41
2022-08-25T01:58:49.060Z,16.40
2022-08-25T02:01:20.287Z,16.31
2022-08-25T02:03:49.687Z,16.31
2022-08-25T02:06:21.280Z,16.24
2022-08-25T02:09:00.711Z,16.15
2022-08-25T02:11:28.422Z,16.17
2022-08-25T02:13:55.028Z,16.18
2022-08-25T02:16:28.406Z,16.17
2022-08-25T02:18:56.139Z,16.15
2022-08-25T02:21:22.843Z,16.14
2022-08-25T02:23:49.586Z,16.06
2022-08-25T02:26:18.937Z,16.04
2022-08-25T02:28:50.584Z,16.03
2022-08-25T02:31:18.686Z,16.02
2022-08-25T02:33:45.575Z,16.01
2022-08-25T02:36:12.336Z,15.98
2022-08-25T02:38:39.755Z,15.96
2022-08-25T02:41:13.268Z,15.91
2022-08-25T02:43:42.131Z,15.92
2022-08-25T02:46:10.388Z,15.88
2022-08-25T02:48:37.741Z,15.87
2022-08-25T02:51:05.855Z,15.86
2022-08-25T02:53:33.523Z,15.84
2022-08-25T02:56:00.297Z,15.81
2022-08-25T02:58:26.935Z,15.79
2022-08-25T03:00:53.740Z,15.77
2022-08-25T03:03:20.727Z,15.70
2022-08-25T03:05:47.420Z,15.70
2022-08-25T03:08:14.461Z,15.65
2022-08-25T03:10:41.410Z,15.62
2022-08-25T03:13:08.297Z,15.62
2022-08-25T03:15:37.832Z,15.63
2022-08-25T03:18:06.127Z,15.64
2022-08-25T03:20:35.744Z,15.62
2022-08-25T03:23:03.071Z,15.59
2022-08-25T03:28:38.931Z,15.57
2022-08-25T03:31:05.837Z,15.54
2022-08-25T03:33:32.467Z,15.51
2022-08-25T03:35:59.356Z,15.42
2022-08-25T03:38:26.989Z,15.41
2022-08-25T03:40:53.665Z,15.40
2022-08-25T03:43:20.385Z,15.39
2022-08-25T03:45:47.982Z,15.36
2022-08-25T03:48:16.136Z,15.35
2022-08-25T03:50:51.490Z,15.31
2022-08-25T03:53:19.965Z,15.26
2022-08-25T03:55:47.307Z,15.25
2022-08-25T03:58:14.374Z,15.22
2022-08-25T04:00:42.124Z,15.20
2022-08-25T04:03:08.998Z,15.19
2022-08-25T04:05:35.635Z,15.16
2022-08-25T04:08:02.714Z,15.14
2022-08-25T04:10:29.766Z,15.11
2022-08-25T04:12:57.531Z,15.10
2022-08-25T04:15:28.923Z,15.07
2022-08-25T04:17:59.016Z,15.01
2022-08-25T04:20:26.310Z,14.98
2022-08-25T04:22:53.269Z,14.97
2022-08-25T04:25:20.033Z,14.93
2022-08-25T04:27:46.720Z,14.91
2022-08-25T04:30:13.832Z,14.92
2022-08-25T04:32:40.600Z,14.89
2022-08-25T04:35:07.728Z,14.85
2022-08-25T04:37:34.767Z,14.83
2022-08-25T04:40:01.925Z,14.84
2022-08-25T04:42:28.653Z,14.83
2022-08-25T04:44:55.794Z,14.81
2022-08-25T04:47:22.452Z,14.81
2022-08-25T04:49:49.278Z,14.82
2022-08-25T04:52:15.947Z,14.76
2022-08-25T04:54:43.114Z,14.78
2022-08-25T04:57:09.962Z,14.77
2022-08-25T04:59:36.813Z,14.78
2022-08-25T05:02:05.248Z,14.82
2022-08-25T05:04:35.249Z,14.82
2022-08-25T05:07:03.411Z,14.81
2022-08-25T05:09:32.072Z,14.82
2022-08-25T05:11:59.995Z,14.83
2022-08-25T05:14:26.885Z,14.84
2022-08-25T05:16:54.853Z,14.86
2022-08-25T05:19:21.691Z,14.85
2022-08-25T05:21:48.400Z,14.90
2022-08-25T05:24:15.412Z,14.92
2022-08-25T05:26:44.052Z,14.96
2022-08-25T05:29:11.773Z,14.98
2022-08-25T05:31:42.427Z,15.00
2022-08-25T05:34:12.139Z,15.06
2022-08-25T05:36:43.368Z,15.19
2022-08-25T05:39:10.989Z,15.38
2022-08-25T05:41:37.942Z,15.58
2022-08-25T05:44:04.873Z,15.76
2022-08-25T05:46:31.897Z,15.97
2022-08-25T05:48:59.111Z,16.20
2022-08-25T05:51:26.786Z,16.41
2022-08-25T05:53:53.956Z,16.55
2022-08-25T05:56:21.164Z,16.76
2022-08-25T05:58:48.108Z,16.96
2022-08-25T06:01:48.276Z,17.20
2022-08-25T06:04:22.542Z,17.51
2022-08-25T06:06:49.924Z,17.70
2022-08-25T06:09:16.539Z,17.86
2022-08-25T06:11:43.256Z,18.01
2022-08-25T06:14:10.730Z,18.11
2022-08-25T06:16:39.127Z,18.32
2022-08-25T06:19:08.119Z,18.51
2022-08-25T06:21:34.748Z,18.74
2022-08-25T06:24:02.155Z,19.15
2022-08-25T06:26:28.812Z,19.35
2022-08-25T06:28:55.453Z,19.59
2022-08-25T06:31:22.684Z,19.74
2022-08-25T06:33:50.260Z,19.90
2022-08-25T06:36:16.935Z,20.29
2022-08-25T06:38:43.703Z,20.49
2022-08-25T06:41:14.017Z,20.75
2022-08-25T06:43:48.108Z,21.01
2022-08-25T06:46:26.357Z,21.28
2022-08-25T06:49:03.030Z,21.43
2022-08-25T06:51:30.031Z,21.56
2022-08-25T06:53:56.680Z,21.78
2022-08-25T06:56:24.049Z,22.11
2022-08-25T06:58:50.792Z,22.39
2022-08-25T07:01:26.215Z,22.46
2022-08-25T07:03:59.683Z,22.82
2022-08-25T07:06:27.897Z,23.11
2022-08-25T07:08:54.608Z,23.44
2022-08-25T07:11:21.547Z,23.40
2022-08-25T07:13:52.595Z,23.56
2022-08-25T07:16:20.806Z,23.53
2022-08-25T07:18:48.394Z,23.65
2022-08-25T07:21:15.303Z,23.77
2022-08-25T07:23:42.473Z,23.93
2022-08-25T07:26:39.346Z,24.06
2022-08-25T07:29:32.754Z,24.26
2022-08-25T07:32:05.244Z,24.46
2022-08-25T07:37:49.643Z,24.79
2022-08-25T07:40:23.204Z,24.91
2022-08-25T07:42:52.426Z,24.88
2022-08-25T07:45:21.478Z,25.04
2022-08-25T07:47:48.580Z,25.14
2022-08-25T07:50:18.550Z,25.66
2022-08-25T07:52:52.099Z,25.54
2022-08-25T07:55:22.808Z,25.81
2022-08-25T07:57:52.788Z,26.14
2022-08-25T08:00:22.586Z,26.40
2022-08-25T08:02:51.416Z,26.31
2022-08-25T08:05:18.101Z,26.11
2022-08-25T08:07:44.739Z,26.94
2022-08-25T08:10:48.003Z,27.31
2022-08-25T08:13:01.767Z,27.29
2022-08-25T08:15:29.957Z,27.35
2022-08-25T08:17:58.458Z,27.52
2022-08-25T08:20:27.077Z,27.04
2022-08-25T08:22:53.900Z,27.04
2022-08-25T08:25:21.521Z,27.04
2022-08-25T08:27:54.946Z,27.33
2022-08-25T08:30:22.286Z,27.43
2022-08-25T08:33:09.124Z,27.77
2022-08-25T08:35:37.157Z,28.19
2022-08-25T08:38:06.938Z,28.08
2022-08-25T08:41:14.569Z,28.01
2022-08-25T08:43:43.658Z,28.71
2022-08-25T08:46:11.246Z,28.71
2022-08-25T08:48:40.848Z,29.43
2022-08-25T08:51:09.840Z,30.01
2022-08-25T08:53:57.220Z,30.57
2022-08-25T08:56:30.947Z,30.34
2022-08-25T08:59:14.333Z,29.54
2022-08-25T09:01:59.153Z,29.04
2022-08-25T09:04:36.089Z,28.98
2022-08-25T09:07:09.189Z,29.14
2022-08-25T09:09:40.126Z,29.18
2022-08-25T09:12:31.478Z,29.18
2022-08-25T09:15:18.363Z,29.91
2022-08-25T09:18:29.791Z,29.75
2022-08-25T09:21:15.941Z,29.58
2022-08-25T09:24:05.672Z,30.45
2022-08-25T09:26:50.983Z,30.69
2022-08-25T09:29:25.385Z,30.30
2022-08-25T09:31:57.942Z,30.97
2022-08-25T09:34:31.893Z,31.29
2022-08-25T09:36:59.334Z,30.76
2022-08-25T09:39:27.906Z,31.31
2022-08-25T09:41:59.287Z,31.54
2022-08-25T09:44:50.045Z,31.24
2022-08-25T09:47:28.005Z,32.51
2022-08-25T09:50:00.716Z,33.15
2022-08-25T09:52:41.106Z,32.94
2022-08-25T09:55:08.112Z,32.21
2022-08-25T09:57:45.217Z,31.28
2022-08-25T10:00:13.612Z,31.27
2022-08-25T10:02:42.719Z,31.67
2022-08-25T10:05:26.135Z,32.11
2022-08-25T10:07:57.188Z,32.27
2022-08-25T10:10:35.604Z,31.61
2022-08-25T10:13:12.176Z,31.66
2022-08-25T10:15:39.726Z,31.71
2022-08-25T10:18:15.753Z,31.07
2022-08-25T10:20:44.848Z,31.58
2022-08-25T10:23:15.025Z,32.65
2022-08-25T10:25:59.222Z,32.53
2022-08-25T10:29:11.910Z,33.74
2022-08-25T10:32:28.031Z,33.64
2022-08-25T10:34:58.471Z,33.20
2022-08-25T10:37:34.737Z,33.61
2022-08-25T10:40:04.816Z,34.14
2022-08-25T10:42:54.690Z,33.82
2022-08-25T10:45:45.764Z,33.76
2022-08-25T10:48:27.791Z,33.61
2022-08-25T10:51:37.712Z,32.77
2022-08-25T10:54:24.591Z,32.76
2022-08-25T10:56:56.539Z,33.64
2022-08-25T10:59:59.764Z,33.89
2022-08-25T11:03:03.973Z,33.77
2022-08-25T11:05:54.710Z,33.68
2022-08-25T11:08:40.098Z,33.80
2022-08-25T11:11:24.304Z,34.30
2022-08-25T11:13:53.172Z,34.30
2022-08-25T11:16:53.682Z,34.34
2022-08-25T11:19:35.001Z,35.37
2022-08-25T11:22:15.362Z,35.17
2022-08-25T11:25:00.997Z,34.64
2022-08-25T11:28:12.183Z,34.60
2022-08-25T11:30:40.242Z,34.07
2022-08-25T11:33:11.783Z,34.44
2022-08-25T11:35:43.255Z,33.79
2022-08-25T11:38:37.853Z,34.40
2022-08-25T11:41:27.192Z,34.79
2022-08-25T11:44:20.104Z,33.70
2022-08-25T11:47:21.490Z,33.56
2022-08-25T11:50:23.671Z,34.11
2022-08-25T11:52:59.818Z,34.50
2022-08-25T11:55:52.253Z,34.29
2022-08-25T11:58:49.951Z,34.11
2022-08-25T12:01:32.585Z,34.04
2022-08-25T12:04:28.638Z,34.39
2022-08-25T12:07:06.825Z,34.44
2022-08-25T12:09:54.629Z,35.00
2022-08-25T12:12:43.964Z,35.53
2022-08-25T12:15:33.166Z,35.45
2022-08-25T12:18:23.196Z,35.09
2022-08-25T12:20:53.997Z,35.38
2022-08-25T12:24:10.077Z,34.92
2022-08-25T12:26:51.965Z,34.35
2022-08-25T12:29:39.511Z,34.59
2022-08-25T12:32:43.711Z,34.68
2022-08-25T12:35:30.588Z,35.55
2022-08-25T12:38:02.510Z,35.48
2022-08-25T12:40:58.530Z,35.77
2022-08-25T12:43:38.085Z,36.30
2022-08-25T12:46:20.130Z,35.41
2022-08-25T12:49:01.043Z,35.69
2022-08-25T12:51:48.575Z,35.71
2022-08-25T12:54:33.951Z,36.15
2022-08-25T12:57:05.167Z,36.24
2022-08-25T12:59:37.760Z,36.71
2022-08-25T13:02:36.626Z,36.99
2022-08-25T13:05:12.284Z,37.06
2022-08-25T13:08:06.945Z,36.99
2022-08-25T13:11:05.003Z,37.19
2022-08-25T13:14:04.401Z,37.19
2022-08-25T13:16:33.512Z,37.41
2022-08-25T13:19:06.832Z,36.90
2022-08-25T13:21:37.841Z,36.71
2022-08-25T13:24:17.152Z,36.28
2022-08-25T13:26:47.133Z,36.55
2022-08-25T13:29:22.325Z,36.82
2022-08-25T13:32:01.449Z,36.93
2022-08-25T13:34:36.870Z,37.49
2022-08-25T13:37:26.300Z,36.98
2022-08-25T13:40:10.952Z,37.08
2022-08-25T13:42:42.524Z,37.11
2022-08-25T13:45:15.204Z,37.34
2022-08-25T13:47:45.739Z,37.35
2022-08-25T13:50:18.415Z,36.44
2022-08-25T13:53:23.929Z,35.50
2022-08-25T13:55:57.122Z,34.45
2022-08-25T13:58:38.594Z,34.87
2022-08-25T14:01:45.057Z,35.23
2022-08-25T14:04:24.737Z,34.41
2022-08-25T14:07:13.205Z,34.79
2022-08-25T14:09:55.806Z,35.35
2022-08-25T14:12:44.843Z,35.70
2022-08-25T14:15:17.719Z,35.24
2022-08-25T14:17:48.644Z,35.14
2022-08-25T14:20:25.662Z,35.65
2022-08-25T14:22:58.012Z,36.00
2022-08-25T14:25:26.863Z,36.27
2022-08-25T14:28:16.479Z,35.52
2022-08-25T14:30:59.750Z,35.66
2022-08-25T14:33:34.325Z,35.68
2022-08-25T14:36:05.415Z,35.70
2022-08-25T14:38:33.521Z,36.02
2022-08-25T14:41:00.642Z,35.99
2022-08-25T14:43:31.541Z,35.92
2022-08-25T14:46:00.506Z,35.64
2022-08-25T14:48:35.504Z,35.58
2022-08-25T14:51:04.273Z,34.95
2022-08-25T14:53:30.928Z,34.97
2022-08-25T14:55:58.979Z,33.92
2022-08-25T14:58:26.755Z,34.13
2022-08-25T15:00:54.579Z,33.82
2022-08-25T15:03:31.751Z,33.64
2022-08-25T15:06:00.602Z,34.13
2022-08-25T15:08:47.237Z,33.94
2022-08-25T15:11:14.932Z,34.24
2022-08-25T15:13:44.669Z,34.37
2022-08-25T15:16:35.380Z,34.61
2022-08-25T15:19:06.767Z,34.43
2022-08-25T15:21:34.142Z,34.58
2022-08-25T15:24:02.686Z,34.29
2022-08-25T15:26:29.247Z,34.50
2022-08-25T15:28:58.161Z,34.29
2022-08-25T15:31:24.857Z,33.53
2022-08-25T15:33:53.571Z,33.20
2022-08-25T15:36:25.565Z,32.94
2022-08-25T15:38:53.236Z,33.18
2022-08-25T15:41:21.745Z,32.95
2022-08-25T15:43:53.913Z,32.53
2022-08-25T15:46:21.884Z,32.35
2022-08-25T15:48:48.589Z,32.31
2022-08-25T15:51:17.699Z,32.18
2022-08-25T15:53:45.024Z,32.19
2022-08-25T15:56:26.516Z,32.31
2022-08-25T15:58:54.349Z,32.24
2022-08-25T16:01:24.944Z,32.03
2022-08-25T16:03:51.868Z,31.98
2022-08-25T16:06:18.586Z,32.20
2022-08-25T16:08:45.256Z,32.27
2022-08-25T16:11:20.999Z,32.25
2022-08-25T16:13:49.337Z,32.24
2022-08-25T16:16:17.927Z,32.21
2022-08-25T16:18:45.569Z,32.24
2022-08-25T16:21:16.636Z,32.05
2022-08-25T16:23:44.076Z,31.95
2022-08-25T16:26:13.023Z,31.92
2022-08-25T16:28:43.655Z,31.82
2022-08-25T16:31:12.344Z,31.79
2022-08-25T16:36:15.592Z,31.62
2022-08-25T16:38:43.363Z,31.56
2022-08-25T16:41:22.985Z,31.51
2022-08-25T16:43:50.409Z,31.39
2022-08-25T16:46:19.132Z,31.27
2022-08-25T16:48:46.522Z,31.11
2022-08-25T16:51:22.786Z,31.02
2022-08-25T16:54:15.866Z,30.75
2022-08-25T16:56:49.240Z,30.73
2022-08-25T16:59:22.151Z,30.65
2022-08-25T17:01:51.145Z,30.60
2022-08-25T17:04:17.813Z,30.45
2022-08-25T17:06:51.784Z,30.44
2022-08-25T17:09:23.046Z,30.40
2022-08-25T17:11:52.702Z,30.38
2022-08-25T17:14:21.388Z,30.34
2022-08-25T17:16:48.609Z,30.23
2022-08-25T17:19:17.699Z,30.08
2022-08-25T17:21:46.411Z,29.92
2022-08-25T17:24:14.068Z,29.87
2022-08-25T17:26:46.232Z,29.83
2022-08-25T17:29:13.068Z,29.73
2022-08-25T17:31:40.155Z,29.69
2022-08-25T17:34:12.892Z,29.54
2022-08-25T17:36:43.988Z,29.37
2022-08-25T17:39:12.333Z,29.28
2022-08-25T17:41:39.716Z,29.16
2022-08-25T17:44:07.610Z,28.95
2022-08-25T17:46:35.009Z,28.89
2022-08-25T17:49:01.710Z,28.77
2022-08-25T17:51:29.725Z,28.70
2022-08-25T17:53:58.605Z,28.60
2022-08-25T17:56:27.234Z,28.49
2022-08-25T17:58:55.910Z,28.41
2022-08-25T18:01:24.687Z,28.31
2022-08-25T18:03:52.540Z,28.17
2022-08-25T18:06:22.553Z,28.07
2022-08-25T18:08:52.258Z,27.95
2022-08-25T18:11:24.513Z,27.80
2022-08-25T18:13:53.716Z,27.72
2022-08-25T18:16:21.287Z,27.57
2022-08-25T18:18:48.599Z,27.43
2022-08-25T18:21:17.261Z,27.30
2022-08-25T18:23:45.196Z,27.16
2022-08-25T18:26:14.499Z,27.00
2022-08-25T18:28:43.902Z,26.91
2022-08-25T18:31:13.252Z,26.82
2022-08-25T18:33:45.033Z,26.68
2022-08-25T18:36:12.448Z,26.51
2022-08-25T18:38:59.361Z,26.31
2022-08-25T18:41:27.796Z,26.10
2022-08-25T18:43:54.506Z,26.02
2022-08-25T18:46:22.765Z,25.91
2022-08-25T18:48:52.958Z,25.80
2022-08-25T18:51:23.143Z,25.61
2022-08-25T18:53:51.191Z,25.48
2022-08-25T18:56:19.203Z,25.39
2022-08-25T18:58:46.980Z,25.21
2022-08-25T19:01:18.552Z,25.09
2022-08-25T19:03:45.708Z,24.97
2022-08-25T19:06:12.574Z,24.87
2022-08-25T19:08:42.089Z,24.81
2022-08-25T19:11:10.002Z,24.76
2022-08-25T19:13:37.861Z,24.70
2022-08-25T19:16:41.029Z,24.65
2022-08-25T19:19:11.553Z,24.58
2022-08-25T19:21:38.796Z,24.45
2022-08-25T19:24:07.956Z,24.39
2022-08-25T19:26:36.545Z,24.37
2022-08-25T19:29:08.949Z,24.33
2022-08-25T19:31:39.203Z,24.27
2022-08-25T19:34:08.734Z,24.21
2022-08-25T19:36:35.566Z,24.17
2022-08-25T19:39:04.980Z,24.18
2022-08-25T19:41:32.097Z,24.11
2022-08-25T19:44:01.619Z,24.08
2022-08-25T19:46:35.679Z,24.05
2022-08-25T19:49:26.358Z,23.98
2022-08-25T19:51:55.385Z,23.91
2022-08-25T19:54:32.370Z,23.85
2022-08-25T19:56:59.723Z,23.80
2022-08-25T19:59:34.301Z,23.73
2022-08-25T20:02:15.535Z,23.68
2022-08-25T20:04:49.769Z,23.61
2022-08-25T20:07:18.945Z,23.54
2022-08-25T20:09:45.578Z,23.49
2022-08-25T20:14:46.766Z,23.36
2022-08-25T20:17:23.140Z,23.31
2022-08-25T20:19:53.028Z,23.26
2022-08-25T20:22:23.627Z,23.20
2022-08-25T20:24:56.252Z,23.12
2022-08-25T20:27:28.308Z,23.09
2022-08-25T20:29:55.858Z,23.02
2022-08-25T20:32:23.416Z,22.96
2022-08-25T20:34:50.435Z,22.90
2022-08-25T20:37:18.596Z,22.85
2022-08-25T20:39:46.219Z,22.78
2022-08-25T20:42:13.685Z,22.69
2022-08-25T20:44:42.194Z,22.61
2022-08-25T20:47:10.527Z,22.53
2022-08-25T20:49:40.029Z,22.46
2022-08-25T20:52:07.594Z,22.42
2022-08-25T20:54:34.663Z,22.37
2022-08-25T20:57:02.642Z,22.30
2022-08-25T20:59:29.699Z,22.20
2022-08-25T21:01:56.617Z,22.13
2022-08-25T21:04:25.921Z,22.09
2022-08-25T21:06:52.954Z,22.03
2022-08-25T21:09:23.729Z,21.98
2022-08-25T21:11:51.301Z,21.95
2022-08-25T21:16:46.591Z,21.84
2022-08-25T21:19:16.074Z,21.79
2022-08-25T21:21:43.834Z,21.76
2022-08-25T21:24:11.700Z,21.64
2022-08-25T21:26:48.562Z,21.55
2022-08-25T21:29:17.384Z,21.53
2022-08-25T21:31:44.312Z,21.46
2022-08-25T21:34:12.679Z,21.45
2022-08-25T21:36:40.547Z,21.40
2022-08-25T21:39:07.943Z,21.33
2022-08-25T21:41:37.677Z,21.27
2022-08-25T21:44:04.583Z,21.24
2022-08-25T21:46:33.531Z,21.14
2022-08-25T21:49:01.581Z,21.06
2022-08-25T21:51:43.664Z,21.04
2022-08-25T21:54:14.214Z,20.89
2022-08-25T21:56:43.692Z,20.92
2022-08-25T21:59:14.061Z,20.88
2022-08-25T22:01:41.475Z,20.84
2022-08-25T22:04:10.096Z,20.82
2022-08-25T22:06:36.878Z,20.75
2022-08-25T22:09:07.395Z,20.71
2022-08-25T22:11:35.960Z,20.63
2022-08-25T22:14:03.600Z,20.62
2022-08-25T22:16:33.044Z,20.55
2022-08-25T22:19:00.708Z,20.48
2022-08-25T22:21:28.001Z,20.43
2022-08-25T22:23:56.079Z,20.40
2022-08-25T22:26:23.881Z,20.34
2022-08-25T22:28:54.124Z,20.33
2022-08-25T22:31:21.198Z,20.28
2022-08-25T22:33:48.910Z,20.26
2022-08-25T22:36:24.807Z,20.21
2022-08-25T22:38:54.815Z,20.15
2022-08-25T22:41:22.924Z,20.11
2022-08-25T22:43:52.900Z,20.05
2022-08-25T22:46:21.584Z,20.01
2022-08-25T22:48:50.301Z,20.00
2022-08-25T22:51:24.357Z,19.91
2022-08-25T22:53:51.655Z,19.87
2022-08-25T22:56:29.708Z,19.75
2022-08-25T22:59:05.567Z,19.75
2022-08-25T23:01:33.038Z,19.72
2022-08-25T23:04:01.212Z,19.64
2022-08-25T23:06:29.405Z,19.61
2022-08-25T23:08:57.092Z,19.58
2022-08-25T23:11:28.917Z,19.54
2022-08-25T23:13:57.651Z,19.53
2022-08-25T23:16:25.154Z,19.54
2022-08-25T23:18:52.840Z,19.54
2022-08-25T23:21:40.975Z,19.52
2022-08-25T23:24:11.838Z,19.51
2022-08-25T23:26:42.646Z,19.49
2022-08-25T23:29:18.742Z,19.45
2022-08-25T23:31:47.826Z,19.45
2022-08-25T23:34:16.003Z,19.42
2022-08-25T23:36:43.448Z,19.40
2022-08-25T23:39:11.465Z,19.37
2022-08-25T23:41:38.719Z,19.33
2022-08-25T23:44:06.702Z,19.26
2022-08-25T23:46:36.177Z,19.27
2022-08-25T23:49:05.599Z,19.23
2022-08-25T23:51:38.125Z,19.16
2022-08-25T23:54:09.213Z,19.15
2022-08-25T23:56:42.479Z,19.13
2022-08-25T23:59:13.007Z,19.12
